Boynton Beach, FL (33435)

12:39 AM EST on February 23, 2017 (GMT -0500)
Boynton Beach | | Change Station

Elev 20 ft 26.53 °N, 80.08 °W | Updated 41 seconds ago

Partly Cloudy
Partly Cloudy
64.3 °F
Feels Like 64.3 °F
N
1.0
Wind Variable Wind from South
Gusts 2.0 mph

Today
High -- | Low -- °F
--% Chance of Precip.
Yesterday
High -- | Low -- °F
Precip. -- in
Pressure 29.64 in
Visibility 6.0 miles
Clouds Few 12000 ft
Scattered Clouds 21000 ft
Dew Point 63 °F
Humidity 96%
Rainfall 1.77 in
Snow Depth Not available.
6:49 AM 6:18 PM
Waning Crescent, 12% visible
METAR KPBI 230453Z 22006KT 6SM BR FEW120 SCT210 17/17 A2964 RMK AO2 SLP037 T01670167 402500167 $
Pressure 29.64 in
Visibility 6.0 miles
Clouds Few 12000 ft
Scattered Clouds 21000 ft
Dew Point 63 °F
Humidity 96%
Rainfall 1.77 in
Snow Depth Not available.
6:49 AM 6:18 PM
Waning Crescent, 12% visible
METAR KPBI 230453Z 22006KT 6SM BR FEW120 SCT210 17/17 A2964 RMK AO2 SLP037 T01670167 402500167 $

Get Your Daily Forecast Email!

Thanks for signing up!

Be on the lookout for a verification email in your inbox.

You'll start receiving the daily forecast at 8 AM.

×

10-Day Weather Forecast

Almanac

Astronomy

Feb. 23, 2017 Rise Set
Actual Time
Civil Twilight
Nautical Twilight
Astronomical Twilight
Moon
Length of Visible Light
Length of Day
Tomorrow will be .
, % of the Moon is Illuminated

Today's Extremes

State Highs State Lows

Community

WunderPhotos

Upload Photos

1,962,540 photos uploaded!

WunderBlog® & News

Nearby

Air Quality

  Air Quality AQ Index Pollutant
Not available.

Snow Depth

Station Depth Elevation

Earthquake Activity

City Distance Mag. Time & Date
Minimum magnitude displayed is 2.5.

Coastal Water Temperatures

Place Temperature

Stations

Nearby Weather Stations

Station Location Temp. Windchill Dew Point Humidity Wind Precip. Elev Updated Type
                   

Watches & Warnings

There are currently no watches in effect.